sensor_id;sensor_type;location;lat;lon;timestamp;pressure;altitude;pressure_sealevel;temperature
70819;BMP280;58439;51.046;13.692;2022-09-03T00:00:18;100341.59;;;14.86
70819;BMP280;58439;51.046;13.692;2022-09-03T00:02:56;100332.44;;;14.89
70819;BMP280;58439;51.046;13.692;2022-09-03T00:05:50;100330.03;;;14.87
70819;BMP280;58439;51.046;13.692;2022-09-03T00:09:04;100331.47;;;14.83
70819;BMP280;58439;51.046;13.692;2022-09-03T00:11:47;100335.75;;;14.77
70819;BMP280;58439;51.046;13.692;2022-09-03T00:14:30;100327.31;;;14.75
70819;BMP280;58439;51.046;13.692;2022-09-03T00:17:13;100320.03;;;14.71
70819;BMP280;58439;51.046;13.692;2022-09-03T00:22:44;100311.38;;;14.64
70819;BMP280;58439;51.046;13.692;2022-09-03T00:25:22;100308.66;;;14.45
70819;BMP280;58439;51.046;13.692;2022-09-03T00:27:56;100305.34;;;14.25
70819;BMP280;58439;51.046;13.692;2022-09-03T00:30:24;100301.78;;;14.06
70819;BMP280;58439;51.046;13.692;2022-09-03T00:33:10;100301.63;;;14.01
70819;BMP280;58439;51.046;13.692;2022-09-03T00:38:30;100291.34;;;13.86
70819;BMP280;58439;51.046;13.692;2022-09-03T00:41:36;100294.63;;;13.75
70819;BMP280;58439;51.046;13.692;2022-09-03T00:47:32;100293.09;;;13.48
70819;BMP280;58439;51.046;13.692;2022-09-03T00:50:32;100293.72;;;13.43
70819;BMP280;58439;51.046;13.692;2022-09-03T00:53:27;100293.75;;;13.37
70819;BMP280;58439;51.046;13.692;2022-09-03T00:59:30;100298.81;;;13.25
70819;BMP280;58439;51.046;13.692;2022-09-03T01:03:17;100292.31;;;13.27
70819;BMP280;58439;51.046;13.692;2022-09-03T01:06:16;100298.19;;;13.23
70819;BMP280;58439;51.046;13.692;2022-09-03T01:12:06;100283.09;;;13.05
70819;BMP280;58439;51.046;13.692;2022-09-03T01:17:45;100282.44;;;12.96
70819;BMP280;58439;51.046;13.692;2022-09-03T01:20:57;100291.34;;;12.95
70819;BMP280;58439;51.046;13.692;2022-09-03T01:30:07;100300.81;;;12.96
70819;BMP280;58439;51.046;13.692;2022-09-03T01:33:02;100291.53;;;12.94
70819;BMP280;58439;51.046;13.692;2022-09-03T01:38:36;100295.00;;;13.01
70819;BMP280;58439;51.046;13.692;2022-09-03T01:42:12;100306.09;;;13.03
70819;BMP280;58439;51.046;13.692;2022-09-03T01:45:30;100305.72;;;13.06
70819;BMP280;58439;51.046;13.692;2022-09-03T01:50:49;100306.91;;;13.03
70819;BMP280;58439;51.046;13.692;2022-09-03T02:00:11;100305.09;;;12.78
70819;BMP280;58439;51.046;13.692;2022-09-03T02:02:47;100311.31;;;12.77
70819;BMP280;58439;51.046;13.692;2022-09-03T02:05:23;100302.44;;;12.64
70819;BMP280;58439;51.046;13.692;2022-09-03T02:08:05;100301.19;;;12.60
70819;BMP280;58439;51.046;13.692;2022-09-03T02:10:48;100304.81;;;12.53
70819;BMP280;58439;51.046;13.692;2022-09-03T02:13:25;100299.16;;;12.42
70819;BMP280;58439;51.046;13.692;2022-09-03T02:16:00;100306.81;;;12.37
70819;BMP280;58439;51.046;13.692;2022-09-03T02:18:36;100300.09;;;12.22
70819;BMP280;58439;51.046;13.692;2022-09-03T02:21:05;100298.66;;;12.12
70819;BMP280;58439;51.046;13.692;2022-09-03T02:23:38;100299.47;;;12.06
70819;BMP280;58439;51.046;13.692;2022-09-03T02:26:11;100300.84;;;11.96
70819;BMP280;58439;51.046;13.692;2022-09-03T02:28:40;100299.75;;;11.90
70819;BMP280;58439;51.046;13.692;2022-09-03T02:31:07;100304.63;;;11.93
70819;BMP280;58439;51.046;13.692;2022-09-03T02:33:41;100299.22;;;11.95
70819;BMP280;58439;51.046;13.692;2022-09-03T02:36:15;100306.47;;;11.99
70819;BMP280;58439;51.046;13.692;2022-09-03T02:38:44;100307.09;;;12.01
70819;BMP280;58439;51.046;13.692;2022-09-03T02:41:13;100306.94;;;12.03
70819;BMP280;58439;51.046;13.692;2022-09-03T02:44:07;100304.03;;;11.98
70819;BMP280;58439;51.046;13.692;2022-09-03T02:46:53;100311.53;;;11.94
70819;BMP280;58439;51.046;13.692;2022-09-03T02:49:23;100305.44;;;11.87
70819;BMP280;58439;51.046;13.692;2022-09-03T02:51:50;100292.50;;;11.85
70819;BMP280;58439;51.046;13.692;2022-09-03T02:54:17;100298.13;;;11.82
70819;BMP280;58439;51.046;13.692;2022-09-03T02:56:47;100301.31;;;11.78
70819;BMP280;58439;51.046;13.692;2022-09-03T02:59:15;100300.09;;;11.74
70819;BMP280;58439;51.046;13.692;2022-09-03T03:01:43;100295.88;;;11.73
70819;BMP280;58439;51.046;13.692;2022-09-03T03:04:13;100299.91;;;11.75
70819;BMP280;58439;51.046;13.692;2022-09-03T03:06:40;100292.25;;;11.74
70819;BMP280;58439;51.046;13.692;2022-09-03T03:09:08;100299.91;;;11.75
70819;BMP280;58439;51.046;13.692;2022-09-03T03:11:35;100296.88;;;11.72
70819;BMP280;58439;51.046;13.692;2022-09-03T03:14:03;100289.59;;;11.67
70819;BMP280;58439;51.046;13.692;2022-09-03T03:16:30;100284.09;;;11.62
70819;BMP280;58439;51.046;13.692;2022-09-03T03:18:57;100287.94;;;11.59
70819;BMP280;58439;51.046;13.692;2022-09-03T03:21:25;100292.56;;;11.57
70819;BMP280;58439;51.046;13.692;2022-09-03T03:23:53;100288.31;;;11.56
70819;BMP280;58439;51.046;13.692;2022-09-03T03:26:20;100281.88;;;11.59
70819;BMP280;58439;51.046;13.692;2022-09-03T03:28:58;100286.34;;;11.58
70819;BMP280;58439;51.046;13.692;2022-09-03T03:31:26;100286.88;;;11.54
70819;BMP280;58439;51.046;13.692;2022-09-03T03:33:57;100284.22;;;11.47
70819;BMP280;58439;51.046;13.692;2022-09-03T03:36:28;100286.16;;;11.39
70819;BMP280;58439;51.046;13.692;2022-09-03T03:39:00;100295.00;;;11.31
70819;BMP280;58439;51.046;13.692;2022-09-03T03:41:31;100305.06;;;11.27
70819;BMP280;58439;51.046;13.692;2022-09-03T03:44:06;100299.38;;;11.24
70819;BMP280;58439;51.046;13.692;2022-09-03T03:46:37;100301.75;;;11.19
70819;BMP280;58439;51.046;13.692;2022-09-03T03:49:06;100300.50;;;11.15
70819;BMP280;58439;51.046;13.692;2022-09-03T03:51:35;100298.72;;;11.15
70819;BMP280;58439;51.046;13.692;2022-09-03T03:54:04;100297.66;;;11.10
70819;BMP280;58439;51.046;13.692;2022-09-03T03:56:32;100290.59;;;11.10
70819;BMP280;58439;51.046;13.692;2022-09-03T03:59:00;100301.72;;;11.12
70819;BMP280;58439;51.046;13.692;2022-09-03T04:01:28;100295.09;;;11.16
70819;BMP280;58439;51.046;13.692;2022-09-03T04:03:57;100287.41;;;11.15
70819;BMP280;58439;51.046;13.692;2022-09-03T04:06:26;100292.63;;;11.15
70819;BMP280;58439;51.046;13.692;2022-09-03T04:08:53;100290.44;;;11.12
70819;BMP280;58439;51.046;13.692;2022-09-03T04:11:25;100286.00;;;11.12
70819;BMP280;58439;51.046;13.692;2022-09-03T04:13:53;100289.78;;;11.10
70819;BMP280;58439;51.046;13.692;2022-09-03T04:16:24;100291.59;;;11.09
70819;BMP280;58439;51.046;13.692;2022-09-03T04:18:54;100288.34;;;11.07
70819;BMP280;58439;51.046;13.692;2022-09-03T04:21:29;100288.13;;;11.02
70819;BMP280;58439;51.046;13.692;2022-09-03T04:23:57;100292.31;;;10.96
70819;BMP280;58439;51.046;13.692;2022-09-03T04:26:29;100279.59;;;10.93
70819;BMP280;58439;51.046;13.692;2022-09-03T04:29:04;100280.41;;;10.94
70819;BMP280;58439;51.046;13.692;2022-09-03T04:31:33;100282.41;;;10.92
70819;BMP280;58439;51.046;13.692;2022-09-03T04:34:01;100291.50;;;10.96
70819;BMP280;58439;51.046;13.692;2022-09-03T04:36:31;100279.81;;;10.98
70819;BMP280;58439;51.046;13.692;2022-09-03T04:39:00;100279.47;;;11.01
70819;BMP280;58439;51.046;13.692;2022-09-03T04:41:31;100281.88;;;11.03
70819;BMP280;58439;51.046;13.692;2022-09-03T04:43:59;100275.22;;;11.00
70819;BMP280;58439;51.046;13.692;2022-09-03T04:46:28;100279.25;;;10.96
70819;BMP280;58439;51.046;13.692;2022-09-03T04:49:01;100284.63;;;10.95
70819;BMP280;58439;51.046;13.692;2022-09-03T04:51:29;100290.72;;;10.95
70819;BMP280;58439;51.046;13.692;2022-09-03T04:54:00;100295.28;;;10.93
70819;BMP280;58439;51.046;13.692;2022-09-03T04:56:34;100290.06;;;10.93
70819;BMP280;58439;51.046;13.692;2022-09-03T04:59:06;100293.13;;;10.97
70819;BMP280;58439;51.046;13.692;2022-09-03T05:01:37;100293.41;;;11.09
70819;BMP280;58439;51.046;13.692;2022-09-03T05:04:06;100298.28;;;11.12
70819;BMP280;58439;51.046;13.692;2022-09-03T05:06:35;100296.69;;;11.17
70819;BMP280;58439;51.046;13.692;2022-09-03T05:09:04;100301.34;;;11.22
70819;BMP280;58439;51.046;13.692;2022-09-03T05:11:31;100296.97;;;11.29
70819;BMP280;58439;51.046;13.692;2022-09-03T05:13:59;100290.59;;;11.38
70819;BMP280;58439;51.046;13.692;2022-09-03T05:16:28;100286.84;;;11.47
70819;BMP280;58439;51.046;13.692;2022-09-03T05:18:58;100282.06;;;11.57
70819;BMP280;58439;51.046;13.692;2022-09-03T05:21:28;100292.97;;;11.61
70819;BMP280;58439;51.046;13.692;2022-09-03T05:23:59;100290.78;;;11.65
70819;BMP280;58439;51.046;13.692;2022-09-03T05:26:30;100288.81;;;11.73
70819;BMP280;58439;51.046;13.692;2022-09-03T05:29:00;100290.88;;;11.84
70819;BMP280;58439;51.046;13.692;2022-09-03T05:31:29;100284.06;;;11.97
70819;BMP280;58439;51.046;13.692;2022-09-03T05:34:01;100288.78;;;12.08
70819;BMP280;58439;51.046;13.692;2022-09-03T05:36:35;100289.22;;;12.18
70819;BMP280;58439;51.046;13.692;2022-09-03T05:39:04;100285.41;;;12.27
70819;BMP280;58439;51.046;13.692;2022-09-03T05:41:31;100289.47;;;12.36
70819;BMP280;58439;51.046;13.692;2022-09-03T05:44:00;100293.91;;;12.49
70819;BMP280;58439;51.046;13.692;2022-09-03T05:46:32;100301.63;;;12.57
70819;BMP280;58439;51.046;13.692;2022-09-03T05:49:02;100291.53;;;12.67
70819;BMP280;58439;51.046;13.692;2022-09-03T05:51:31;100295.78;;;12.82
70819;BMP280;58439;51.046;13.692;2022-09-03T05:53:59;100291.53;;;12.94
70819;BMP280;58439;51.046;13.692;2022-09-03T05:56:29;100293.56;;;13.12
70819;BMP280;58439;51.046;13.692;2022-09-03T05:58:59;100291.94;;;13.24
70819;BMP280;58439;51.046;13.692;2022-09-03T06:01:33;100290.28;;;13.36
70819;BMP280;58439;51.046;13.692;2022-09-03T06:04:11;100296.13;;;13.51
70819;BMP280;58439;51.046;13.692;2022-09-03T06:06:42;100294.09;;;13.60
70819;BMP280;58439;51.046;13.692;2022-09-03T06:09:13;100300.72;;;13.69
70819;BMP280;58439;51.046;13.692;2022-09-03T06:11:42;100297.47;;;13.80
70819;BMP280;58439;51.046;13.692;2022-09-03T06:14:13;100297.22;;;13.88
70819;BMP280;58439;51.046;13.692;2022-09-03T06:16:46;100298.59;;;13.98
70819;BMP280;58439;51.046;13.692;2022-09-03T06:19:19;100299.34;;;14.11
70819;BMP280;58439;51.046;13.692;2022-09-03T06:21:47;100300.28;;;14.24
70819;BMP280;58439;51.046;13.692;2022-09-03T06:24:18;100310.97;;;14.29
70819;BMP280;58439;51.046;13.692;2022-09-03T06:26:52;100309.31;;;14.34
70819;BMP280;58439;51.046;13.692;2022-09-03T06:29:19;100302.81;;;14.43
70819;BMP280;58439;51.046;13.692;2022-09-03T06:31:47;100306.78;;;14.53
70819;BMP280;58439;51.046;13.692;2022-09-03T06:34:14;100310.09;;;14.73
70819;BMP280;58439;51.046;13.692;2022-09-03T06:36:44;100308.97;;;14.87
70819;BMP280;58439;51.046;13.692;2022-09-03T06:39:11;100311.63;;;14.87
70819;BMP280;58439;51.046;13.692;2022-09-03T06:41:38;100311.50;;;14.94
70819;BMP280;58439;51.046;13.692;2022-09-03T06:44:07;100315.44;;;15.10
70819;BMP280;58439;51.046;13.692;2022-09-03T06:46:40;100313.44;;;15.30
70819;BMP280;58439;51.046;13.692;2022-09-03T06:49:13;100309.53;;;15.51
70819;BMP280;58439;51.046;13.692;2022-09-03T06:51:41;100308.41;;;15.65
70819;BMP280;58439;51.046;13.692;2022-09-03T06:54:11;100298.09;;;15.75
70819;BMP280;58439;51.046;13.692;2022-09-03T06:56:40;100299.66;;;15.83
70819;BMP280;58439;51.046;13.692;2022-09-03T06:59:10;100303.66;;;15.85
70819;BMP280;58439;51.046;13.692;2022-09-03T07:01:39;100306.88;;;15.87
70819;BMP280;58439;51.046;13.692;2022-09-03T07:04:12;100306.06;;;15.87
70819;BMP280;58439;51.046;13.692;2022-09-03T07:06:42;100304.59;;;15.91
70819;BMP280;58439;51.046;13.692;2022-09-03T07:09:11;100300.47;;;15.95
70819;BMP280;58439;51.046;13.692;2022-09-03T07:11:39;100301.13;;;16.09
70819;BMP280;58439;51.046;13.692;2022-09-03T07:14:17;100300.03;;;16.16
70819;BMP280;58439;51.046;13.692;2022-09-03T07:16:46;100293.81;;;16.22
70819;BMP280;58439;51.046;13.692;2022-09-03T07:19:14;100297.09;;;16.36
70819;BMP280;58439;51.046;13.692;2022-09-03T07:21:41;100288.16;;;16.61
70819;BMP280;58439;51.046;13.692;2022-09-03T07:24:16;100290.91;;;16.77
70819;BMP280;58439;51.046;13.692;2022-09-03T07:26:44;100290.13;;;16.89
70819;BMP280;58439;51.046;13.692;2022-09-03T07:29:14;100294.94;;;16.92
70819;BMP280;58439;51.046;13.692;2022-09-03T07:31:48;100285.16;;;17.04
70819;BMP280;58439;51.046;13.692;2022-09-03T07:34:20;100282.41;;;17.10
70819;BMP280;58439;51.046;13.692;2022-09-03T07:36:53;100281.34;;;17.23
70819;BMP280;58439;51.046;13.692;2022-09-03T07:39:20;100275.69;;;17.31
70819;BMP280;58439;51.046;13.692;2022-09-03T07:41:48;100272.91;;;17.38
70819;BMP280;58439;51.046;13.692;2022-09-03T07:44:17;100268.28;;;17.45
70819;BMP280;58439;51.046;13.692;2022-09-03T07:46:50;100269.16;;;17.62
70819;BMP280;58439;51.046;13.692;2022-09-03T07:49:19;100270.03;;;17.68
70819;BMP280;58439;51.046;13.692;2022-09-03T07:51:48;100264.28;;;17.71
70819;BMP280;58439;51.046;13.692;2022-09-03T07:54:20;100270.94;;;17.73
70819;BMP280;58439;51.046;13.692;2022-09-03T07:56:48;100268.47;;;17.84
70819;BMP280;58439;51.046;13.692;2022-09-03T07:59:15;100275.56;;;17.95
70819;BMP280;58439;51.046;13.692;2022-09-03T08:01:43;100278.72;;;18.08
70819;BMP280;58439;51.046;13.692;2022-09-03T08:04:13;100270.69;;;18.20
70819;BMP280;58439;51.046;13.692;2022-09-03T08:06:40;100276.38;;;18.29
70819;BMP280;58439;51.046;13.692;2022-09-03T08:09:11;100270.44;;;18.38
70819;BMP280;58439;51.046;13.692;2022-09-03T08:11:46;100271.63;;;18.48
70819;BMP280;58439;51.046;13.692;2022-09-03T08:14:16;100270.69;;;18.54
70819;BMP280;58439;51.046;13.692;2022-09-03T08:16:46;100270.00;;;18.63
70819;BMP280;58439;51.046;13.692;2022-09-03T08:19:15;100268.00;;;18.71
70819;BMP280;58439;51.046;13.692;2022-09-03T08:21:47;100271.34;;;18.83
70819;BMP280;58439;51.046;13.692;2022-09-03T08:24:17;100270.75;;;18.97
70819;BMP280;58439;51.046;13.692;2022-09-03T08:26:46;100273.03;;;19.11
70819;BMP280;58439;51.046;13.692;2022-09-03T08:29:19;100276.84;;;19.20
70819;BMP280;58439;51.046;13.692;2022-09-03T08:31:47;100271.13;;;19.28
70819;BMP280;58439;51.046;13.692;2022-09-03T08:34:14;100262.91;;;19.29
70819;BMP280;58439;51.046;13.692;2022-09-03T08:36:46;100260.78;;;19.31
70819;BMP280;58439;51.046;13.692;2022-09-03T08:39:14;100266.22;;;19.42
70819;BMP280;58439;51.046;13.692;2022-09-03T08:44:59;100257.19;;;19.65
70819;BMP280;58439;51.046;13.692;2022-09-03T08:47:35;100259.06;;;19.69
70819;BMP280;58439;51.046;13.692;2022-09-03T08:50:20;100260.13;;;19.68
70819;BMP280;58439;51.046;13.692;2022-09-03T08:53:11;100246.69;;;19.80
70819;BMP280;58439;51.046;13.692;2022-09-03T08:55:58;100248.56;;;19.84
70819;BMP280;58439;51.046;13.692;2022-09-03T08:58:34;100247.28;;;19.87
70819;BMP280;58439;51.046;13.692;2022-09-03T09:01:22;100251.06;;;19.91
70819;BMP280;58439;51.046;13.692;2022-09-03T09:07:26;100238.13;;;19.73
70819;BMP280;58439;51.046;13.692;2022-09-03T09:13:26;100229.34;;;19.99
70819;BMP280;58439;51.046;13.692;2022-09-03T09:16:05;100233.88;;;20.04
70819;BMP280;58439;51.046;13.692;2022-09-03T09:21:58;100235.50;;;20.47
70819;BMP280;58439;51.046;13.692;2022-09-03T09:24:37;100231.78;;;20.53
70819;BMP280;58439;51.046;13.692;2022-09-03T09:27:06;100229.16;;;20.58
70819;BMP280;58439;51.046;13.692;2022-09-03T09:29:38;100226.53;;;20.68
70819;BMP280;58439;51.046;13.692;2022-09-03T09:32:09;100230.59;;;20.81
70819;BMP280;58439;51.046;13.692;2022-09-03T09:34:39;100228.47;;;20.88
70819;BMP280;58439;51.046;13.692;2022-09-03T09:37:12;100225.84;;;20.93
70819;BMP280;58439;51.046;13.692;2022-09-03T09:39:53;100220.00;;;21.01
70819;BMP280;58439;51.046;13.692;2022-09-03T09:42:23;100221.03;;;20.85
70819;BMP280;58439;51.046;13.692;2022-09-03T09:44:51;100210.41;;;20.90
70819;BMP280;58439;51.046;13.692;2022-09-03T09:47:27;100210.38;;;20.85
70819;BMP280;58439;51.046;13.692;2022-09-03T09:49:59;100208.31;;;21.07
70819;BMP280;58439;51.046;13.692;2022-09-03T09:52:30;100202.22;;;21.17
70819;BMP280;58439;51.046;13.692;2022-09-03T09:55:14;100207.81;;;21.20
70819;BMP280;58439;51.046;13.692;2022-09-03T09:57:42;100205.19;;;21.31
70819;BMP280;58439;51.046;13.692;2022-09-03T10:00:18;100204.13;;;21.42
70819;BMP280;58439;51.046;13.692;2022-09-03T10:02:53;100187.88;;;21.59
70819;BMP280;58439;51.046;13.692;2022-09-03T10:05:24;100196.38;;;21.55
70819;BMP280;58439;51.046;13.692;2022-09-03T10:08:04;100188.38;;;21.55
70819;BMP280;58439;51.046;13.692;2022-09-03T10:10:46;100200.41;;;21.53
70819;BMP280;58439;51.046;13.692;2022-09-03T10:13:25;100197.19;;;21.66
70819;BMP280;58439;51.046;13.692;2022-09-03T10:19:08;100190.81;;;21.77
70819;BMP280;58439;51.046;13.692;2022-09-03T10:22:08;100192.13;;;21.90
70819;BMP280;58439;51.046;13.692;2022-09-03T10:24:59;100198.47;;;22.14
70819;BMP280;58439;51.046;13.692;2022-09-03T10:27:29;100191.53;;;22.13
70819;BMP280;58439;51.046;13.692;2022-09-03T10:29:58;100182.13;;;22.31
70819;BMP280;58439;51.046;13.692;2022-09-03T10:33:03;100187.38;;;22.57
70819;BMP280;58439;51.046;13.692;2022-09-03T10:35:40;100182.53;;;22.69
70819;BMP280;58439;51.046;13.692;2022-09-03T10:38:31;100181.31;;;22.90
70819;BMP280;58439;51.046;13.692;2022-09-03T10:44:49;100181.44;;;22.75
70819;BMP280;58439;51.046;13.692;2022-09-03T10:50:19;100174.72;;;27.29
70819;BMP280;58439;51.046;13.692;2022-09-03T10:53:06;100160.41;;;29.43
70819;BMP280;58439;51.046;13.692;2022-09-03T10:58:47;100163.28;;;32.40
70819;BMP280;58439;51.046;13.692;2022-09-03T11:04:55;100162.22;;;33.24
70819;BMP280;58439;51.046;13.692;2022-09-03T11:07:45;100175.25;;;30.62
70819;BMP280;58439;51.046;13.692;2022-09-03T11:10:49;100164.69;;;30.69
70819;BMP280;58439;51.046;13.692;2022-09-03T11:13:49;100167.75;;;32.64
70819;BMP280;58439;51.046;13.692;2022-09-03T11:16:22;100163.59;;;34.10
70819;BMP280;58439;51.046;13.692;2022-09-03T11:19:09;100155.59;;;34.40
70819;BMP280;58439;51.046;13.692;2022-09-03T11:21:41;100148.50;;;32.54
70819;BMP280;58439;51.046;13.692;2022-09-03T11:24:17;100155.03;;;33.50
70819;BMP280;58439;51.046;13.692;2022-09-03T11:27:01;100149.09;;;35.90
70819;BMP280;58439;51.046;13.692;2022-09-03T11:30:10;100142.78;;;38.42
70819;BMP280;58439;51.046;13.692;2022-09-03T11:32:49;100155.56;;;38.92
70819;BMP280;58439;51.046;13.692;2022-09-03T11:38:01;100145.91;;;38.27
70819;BMP280;58439;51.046;13.692;2022-09-03T11:40:36;100150.19;;;35.19
70819;BMP280;58439;51.046;13.692;2022-09-03T11:43:24;100149.25;;;31.55
70819;BMP280;58439;51.046;13.692;2022-09-03T11:46:26;100131.09;;;29.71
70819;BMP280;58439;51.046;13.692;2022-09-03T11:49:11;100135.72;;;31.95
70819;BMP280;58439;51.046;13.692;2022-09-03T11:51:40;100154.84;;;36.22
70819;BMP280;58439;51.046;13.692;2022-09-03T11:57:24;100143.50;;;37.47
70819;BMP280;58439;51.046;13.692;2022-09-03T11:59:53;100145.31;;;39.13
70819;BMP280;58439;51.046;13.692;2022-09-03T12:02:30;100138.94;;;40.68
70819;BMP280;58439;51.046;13.692;2022-09-03T12:05:30;100145.19;;;39.38
70819;BMP280;58439;51.046;13.692;2022-09-03T12:11:48;100135.81;;;39.91
70819;BMP280;58439;51.046;13.692;2022-09-03T12:14:43;100144.09;;;40.62
70819;BMP280;58439;51.046;13.692;2022-09-03T12:17:52;100150.34;;;39.84
70819;BMP280;58439;51.046;13.692;2022-09-03T12:20:41;100141.91;;;37.36
70819;BMP280;58439;51.046;13.692;2022-09-03T12:23:28;100132.19;;;33.90
70819;BMP280;58439;51.046;13.692;2022-09-03T12:26:08;100128.06;;;32.56
70819;BMP280;58439;51.046;13.692;2022-09-03T12:28:45;100126.88;;;33.97
70819;BMP280;58439;51.046;13.692;2022-09-03T12:33:55;100130.28;;;30.78
70819;BMP280;58439;51.046;13.692;2022-09-03T12:36:38;100126.44;;;31.28
70819;BMP280;58439;51.046;13.692;2022-09-03T12:44:38;100122.91;;;38.28
70819;BMP280;58439;51.046;13.692;2022-09-03T12:47:12;100120.53;;;38.37
70819;BMP280;58439;51.046;13.692;2022-09-03T12:50:08;100120.19;;;39.25
70819;BMP280;58439;51.046;13.692;2022-09-03T12:52:58;100112.75;;;37.93
70819;BMP280;58439;51.046;13.692;2022-09-03T12:55:48;100112.72;;;38.39
70819;BMP280;58439;51.046;13.692;2022-09-03T12:58:22;100109.97;;;38.39
70819;BMP280;58439;51.046;13.692;2022-09-03T13:01:12;100105.28;;;37.72
70819;BMP280;58439;51.046;13.692;2022-09-03T13:04:02;100103.53;;;39.61
70819;BMP280;58439;51.046;13.692;2022-09-03T13:06:46;100104.69;;;39.01
70819;BMP280;58439;51.046;13.692;2022-09-03T13:09:22;100106.63;;;40.48
70819;BMP280;58439;51.046;13.692;2022-09-03T13:11:51;100101.69;;;39.47
70819;BMP280;58439;51.046;13.692;2022-09-03T13:14:21;100100.75;;;39.68
70819;BMP280;58439;51.046;13.692;2022-09-03T13:26:27;100107.94;;;31.30
70819;BMP280;58439;51.046;13.692;2022-09-03T13:29:33;100089.22;;;29.15
70819;BMP280;58439;51.046;13.692;2022-09-03T13:32:30;100094.00;;;33.41
70819;BMP280;58439;51.046;13.692;2022-09-03T13:37:53;100088.66;;;32.59
70819;BMP280;58439;51.046;13.692;2022-09-03T13:43:31;100084.47;;;34.12
70819;BMP280;58439;51.046;13.692;2022-09-03T13:46:38;100082.19;;;34.14
70819;BMP280;58439;51.046;13.692;2022-09-03T13:50:02;100088.03;;;37.29
70819;BMP280;58439;51.046;13.692;2022-09-03T13:52:37;100083.03;;;38.27
70819;BMP280;58439;51.046;13.692;2022-09-03T13:55:30;100081.69;;;36.24
70819;BMP280;58439;51.046;13.692;2022-09-03T13:58:35;100073.97;;;35.45
70819;BMP280;58439;51.046;13.692;2022-09-03T14:01:10;100064.59;;;37.00
70819;BMP280;58439;51.046;13.692;2022-09-03T14:03:54;100074.03;;;37.38
70819;BMP280;58439;51.046;13.692;2022-09-03T14:06:48;100070.31;;;39.55
70819;BMP280;58439;51.046;13.692;2022-09-03T14:09:59;100066.44;;;40.95
70819;BMP280;58439;51.046;13.692;2022-09-03T14:12:49;100066.56;;;40.85
70819;BMP280;58439;51.046;13.692;2022-09-03T14:15:32;100061.28;;;40.40
70819;BMP280;58439;51.046;13.692;2022-09-03T14:18:53;100059.09;;;41.12
70819;BMP280;58439;51.046;13.692;2022-09-03T14:21:33;100067.38;;;41.35
70819;BMP280;58439;51.046;13.692;2022-09-03T14:25:21;100066.63;;;41.08
70819;BMP280;58439;51.046;13.692;2022-09-03T14:27:27;100080.63;;;39.37
70819;BMP280;58439;51.046;13.692;2022-09-03T14:30:24;100078.00;;;39.16
70819;BMP280;58439;51.046;13.692;2022-09-03T14:33:16;100072.22;;;39.65
70819;BMP280;58439;51.046;13.692;2022-09-03T14:42:10;100070.03;;;39.46
70819;BMP280;58439;51.046;13.692;2022-09-03T14:48:02;100071.97;;;40.28
70819;BMP280;58439;51.046;13.692;2022-09-03T14:51:03;100071.22;;;39.86
70819;BMP280;58439;51.046;13.692;2022-09-03T14:57:07;100077.00;;;39.54
70819;BMP280;58439;51.046;13.692;2022-09-03T15:00:01;100071.50;;;39.54
70819;BMP280;58439;51.046;13.692;2022-09-03T15:03:03;100075.16;;;40.60
70819;BMP280;58439;51.046;13.692;2022-09-03T15:06:00;100071.59;;;40.90
70819;BMP280;58439;51.046;13.692;2022-09-03T15:09:09;100065.16;;;40.73
70819;BMP280;58439;51.046;13.692;2022-09-03T15:12:21;100071.31;;;37.45
70819;BMP280;58439;51.046;13.692;2022-09-03T15:14:57;100069.81;;;36.61
70819;BMP280;58439;51.046;13.692;2022-09-03T15:17:49;100069.34;;;37.31
70819;BMP280;58439;51.046;13.692;2022-09-03T15:23:22;100070.31;;;34.48
70819;BMP280;58439;51.046;13.692;2022-09-03T15:37:51;100066.66;;;28.44
70819;BMP280;58439;51.046;13.692;2022-09-03T15:40:47;100060.53;;;28.90
70819;BMP280;58439;51.046;13.692;2022-09-03T15:43:30;100066.53;;;28.87
70819;BMP280;58439;51.046;13.692;2022-09-03T15:46:02;100058.03;;;27.95
70819;BMP280;58439;51.046;13.692;2022-09-03T15:48:49;100060.38;;;28.14
70819;BMP280;58439;51.046;13.692;2022-09-03T15:51:26;100066.06;;;27.78
70819;BMP280;58439;51.046;13.692;2022-09-03T15:56:54;100073.09;;;28.68
70819;BMP280;58439;51.046;13.692;2022-09-03T16:00:05;100061.09;;;30.53
70819;BMP280;58439;51.046;13.692;2022-09-03T16:02:46;100062.69;;;29.05
70819;BMP280;58439;51.046;13.692;2022-09-03T16:16:40;100072.47;;;26.94
70819;BMP280;58439;51.046;13.692;2022-09-03T16:20:13;100075.97;;;26.41
70819;BMP280;58439;51.046;13.692;2022-09-03T16:23:10;100068.31;;;25.76
70819;BMP280;58439;51.046;13.692;2022-09-03T16:29:12;100061.53;;;25.10
70819;BMP280;58439;51.046;13.692;2022-09-03T16:38:37;100067.94;;;24.82
70819;BMP280;58439;51.046;13.692;2022-09-03T16:47:32;100070.94;;;24.24
70819;BMP280;58439;51.046;13.692;2022-09-03T16:53:08;100058.59;;;23.91
70819;BMP280;58439;51.046;13.692;2022-09-03T16:59:15;100059.56;;;23.52
70819;BMP280;58439;51.046;13.692;2022-09-03T17:02:11;100060.84;;;23.36
70819;BMP280;58439;51.046;13.692;2022-09-03T17:08:31;100058.28;;;22.92
70819;BMP280;58439;51.046;13.692;2022-09-03T17:11:24;100058.44;;;22.76
70819;BMP280;58439;51.046;13.692;2022-09-03T17:17:05;100056.22;;;22.49
70819;BMP280;58439;51.046;13.692;2022-09-03T17:23:00;100058.28;;;22.18
70819;BMP280;58439;51.046;13.692;2022-09-03T17:25:59;100056.19;;;22.10
70819;BMP280;58439;51.046;13.692;2022-09-03T17:31:45;100069.06;;;21.88
70819;BMP280;58439;51.046;13.692;2022-09-03T17:37:49;100066.72;;;21.66
70819;BMP280;58439;51.046;13.692;2022-09-03T17:41:03;100071.81;;;21.52
70819;BMP280;58439;51.046;13.692;2022-09-03T17:46:43;100077.69;;;21.19
70819;BMP280;58439;51.046;13.692;2022-09-03T17:49:21;100078.75;;;21.08